This is the latest recevied weather packets stored in our database for station/object OK1PHM-12. If no packets are shown the sender has not sent any weather packets the latest 1 day(s).
| Time | Temp. | Humidity | Pressure | Rain* | Wind** | Luminosity | Snow |
|---|---|---|---|---|---|---|---|
| 1777769597 | 17.22° C | 41% | 1019.3 hPa | - | - | - | - |
| 1777768696 | 17.78° C | 39% | 1019.2 hPa | - | - | - | - |
| 1777767795 | 17.78° C | 39% | 1019.2 hPa | - | - | - | - |
| 1777766894 | 18.33° C | 37% | 1019.2 hPa | - | - | - | - |
| 1777765993 | 18.33° C | 36% | 1019.4 hPa | - | - | - | - |
| 1777765092 | 18.33° C | 36% | 1019.5 hPa | - | - | - | - |
| 1777764192 | 18.33° C | 36% | 1019.7 hPa | - | - | - | - |
| 1777763291 | 18.89° C | 36% | 1019.7 hPa | - | - | - | - |
| 1777762390 | 18.33° C | 36% | 1019.7 hPa | - | - | - | - |
| 1777761489 | 18.33° C | 37% | 1019.8 hPa | - | - | - | - |
| 1777760588 | 18.33° C | 38% | 1019.8 hPa | - | - | - | - |
| 1777759688 | 18.33° C | 39% | 1019.9 hPa | - | - | - | - |
| 1777758787 | 18.33° C | 40% | 1020 hPa | - | - | - | - |
| 1777757886 | 18.33° C | 41% | 1020 hPa | - | - | - | - |
| 1777756985 | 17.22° C | 44% | 1020 hPa | - | - | - | - |
| 1777756084 | 12.78° C | 59% | 1020.2 hPa | - | - | - | - |
| 1777755183 | 12.78° C | 62% | 1020.3 hPa | - | - | - | - |
| 1777754283 | 13.33° C | 60% | 1020.2 hPa | - | - | - | - |
| 1777753382 | 13.33° C | 61% | 1020.3 hPa | - | - | - | - |
| 1777752481 | 13.89° C | 61% | 1020.3 hPa | - | - | - | - |
| 1777751580 | 13.89° C | 61% | 1020.4 hPa | - | - | - | - |
| 1777750679 | 14.44° C | 60% | 1020.5 hPa | - | - | - | - |
| 1777749778 | 15° C | 60% | 1020.5 hPa | - | - | - | - |
| 1777748878 | 16.11° C | 58% | 1020.5 hPa | - | - | - | - |
| 1777747976 | 16.67° C | 57% | 1020.5 hPa | - | - | - | - |
* Rain since midnight (hover to see other rain measurements)
** Current wind speed in m/s (hover to see current wind gust speed)